createdAt,value
2022-07-27T00:02:30.040Z,100106.09
2022-07-27T00:05:00.549Z,100098.06
2022-07-27T00:07:30.676Z,100104.59
2022-07-27T00:10:01.238Z,100102.75
2022-07-27T00:12:32.416Z,100101.16
2022-07-27T00:15:02.912Z,100111.19
2022-07-27T00:17:33.841Z,100112.81
2022-07-27T00:20:04.537Z,100102.31
2022-07-27T00:22:35.527Z,100101.81
2022-07-27T00:25:06.972Z,100099.94
2022-07-27T00:27:38.223Z,100108.56
2022-07-27T00:30:09.201Z,100100.19
2022-07-27T00:32:40.403Z,100098.84
2022-07-27T00:35:12.316Z,100102.66
2022-07-27T00:37:43.227Z,100114.25
2022-07-27T00:40:16.605Z,100117.19
2022-07-27T00:42:47.885Z,100111.78
2022-07-27T00:45:18.424Z,100107.72
2022-07-27T00:47:51.814Z,100098.84
2022-07-27T00:50:25.377Z,100103.69
2022-07-27T00:52:57.620Z,100103.44
2022-07-27T00:55:29.556Z,100111.00
2022-07-27T00:58:01.633Z,100100.19
2022-07-27T01:00:33.294Z,100096.13
2022-07-27T01:03:09.091Z,100099.91
2022-07-27T01:05:42.906Z,100094.50
2022-07-27T01:08:16.143Z,100097.19
2022-07-27T01:10:47.911Z,100102.00
2022-07-27T01:13:20.278Z,100097.69
2022-07-27T01:15:51.712Z,100105.25
2022-07-27T01:18:42.240Z,100103.34
2022-07-27T01:21:13.142Z,100107.94
2022-07-27T01:23:44.408Z,100107.09
2022-07-27T01:26:19.752Z,100107.38
2022-07-27T01:28:53.825Z,100111.19
2022-07-27T01:31:25.470Z,100110.09
2022-07-27T01:33:56.625Z,100101.75
2022-07-27T01:36:27.178Z,100099.34
2022-07-27T01:38:57.997Z,100109.09
2022-07-27T01:41:32.008Z,100108.03
2022-07-27T01:44:02.978Z,100110.47
2022-07-27T01:46:34.199Z,100114.53
2022-07-27T01:49:08.847Z,100109.16
2022-07-27T01:51:39.805Z,100119.94
2022-07-27T01:54:10.707Z,100119.44
2022-07-27T01:56:41.659Z,100111.88
2022-07-27T01:59:16.102Z,100120.56
2022-07-27T02:01:50.383Z,100116.81
2022-07-27T02:04:21.489Z,100119.22
2022-07-27T02:06:52.822Z,100111.97
2022-07-27T02:09:23.166Z,100107.66
2022-07-27T02:12:14.740Z,100108.78
2022-07-27T02:14:47.025Z,100112.84
2022-07-27T02:17:20.979Z,100120.69
2022-07-27T02:19:54.224Z,100115.84
2022-07-27T02:22:24.995Z,100114.75
2022-07-27T02:24:55.979Z,100110.44
2022-07-27T02:27:28.647Z,100109.09
2022-07-27T02:29:59.733Z,100113.44
2022-07-27T02:32:31.005Z,100110.75
2022-07-27T02:35:18.781Z,100099.69
2022-07-27T02:37:51.439Z,100100.25
2022-07-27T02:40:23.402Z,100101.34
2022-07-27T02:42:54.572Z,100110.28
2022-07-27T02:45:25.789Z,100118.38
2022-07-27T02:47:59.472Z,100104.59
2022-07-27T02:50:33.622Z,100124.06
2022-07-27T02:53:04.550Z,100111.94
2022-07-27T02:55:35.481Z,100108.16
2022-07-27T02:58:21.637Z,100109.25
2022-07-27T03:11:56.840Z,100095.53
2022-07-27T03:15:20.574Z,100096.88
2022-07-27T03:20:44.500Z,100093.94
2022-07-27T03:23:15.515Z,100098.00
2022-07-27T03:25:51.143Z,100098.53
2022-07-27T03:28:24.725Z,100092.31
2022-07-27T03:31:13.332Z,100098.00
2022-07-27T03:33:53.545Z,100107.97
2022-07-27T03:56:15.323Z,100079.88
2022-07-27T03:59:07.739Z,100079.88
2022-07-27T04:01:41.143Z,100079.34
2022-07-27T04:04:28.466Z,100077.19
2022-07-27T04:06:59.897Z,100079.38
2022-07-27T04:09:42.533Z,100078.84
2022-07-27T04:12:20.008Z,100077.78
2022-07-27T04:14:51.217Z,100073.19
2022-07-27T04:17:54.997Z,100071.03
2022-07-27T04:20:17.044Z,100074.84
2022-07-27T04:22:49.374Z,100078.59
2022-07-27T04:25:20.329Z,100070.50
2022-07-27T04:27:51.974Z,100080.25
2022-07-27T04:30:22.810Z,100068.59
2022-07-27T04:32:54.009Z,100061.59
2022-07-27T04:35:26.761Z,100058.38
2022-07-27T04:37:59.805Z,100063.25
2022-07-27T04:40:38.596Z,100057.59
2022-07-27T04:43:41.835Z,100055.16
2022-07-27T04:51:38.964Z,100053.59
2022-07-27T04:54:21.706Z,100044.94
2022-07-27T04:57:27.073Z,100049.84
2022-07-27T05:00:51.481Z,100040.66
2022-07-27T05:03:54.225Z,100032.81
2022-07-27T05:06:48.288Z,100038.47
2022-07-27T05:10:05.974Z,100044.69
2022-07-27T05:15:28.995Z,100030.88
2022-07-27T05:18:20.909Z,100022.22
2022-07-27T05:20:52.154Z,100013.59
2022-07-27T05:23:23.363Z,100021.72
2022-07-27T05:36:17.882Z,100024.16
2022-07-27T05:39:32.353Z,100037.94
2022-07-27T05:42:21.307Z,100035.22
2022-07-27T05:44:58.480Z,100034.69
2022-07-27T05:47:29.372Z,100029.25
2022-07-27T05:50:00.555Z,100027.09
2022-07-27T05:52:31.536Z,100023.28
2022-07-27T05:55:06.057Z,100029.25
2022-07-27T05:57:36.971Z,100028.69
2022-07-27T06:00:09.131Z,100030.06
2022-07-27T06:02:42.966Z,100024.91
2022-07-27T06:05:20.696Z,100024.91
2022-07-27T06:08:49.107Z,100036.78
2022-07-27T06:11:32.159Z,100038.69
2022-07-27T06:14:02.807Z,100034.38
2022-07-27T06:16:36.181Z,100041.13
2022-07-27T06:19:09.717Z,100039.50
2022-07-27T06:21:40.633Z,100034.09
2022-07-27T06:24:11.339Z,100029.75
2022-07-27T06:26:41.210Z,100030.56
2022-07-27T06:29:12.086Z,100030.81
2022-07-27T06:31:49.420Z,100023.81
2022-07-27T06:34:20.271Z,100021.59
2022-07-27T06:36:53.588Z,100030.22
2022-07-27T06:39:24.083Z,100016.72
2022-07-27T06:41:58.088Z,100017.81
2022-07-27T06:47:57.407Z,100024.22
2022-07-27T06:50:33.940Z,100020.97
2022-07-27T06:53:05.683Z,100032.03
2022-07-27T06:56:00.771Z,100038.25
2022-07-27T06:58:33.350Z,100034.69
2022-07-27T07:01:53.471Z,100046.28
2022-07-27T07:08:28.184Z,100048.94
2022-07-27T07:10:58.980Z,100048.94
2022-07-27T07:20:16.429Z,100049.75
2022-07-27T07:23:07.548Z,100040.03
2022-07-27T07:25:57.451Z,100047.28
2022-07-27T07:29:53.885Z,100035.69
2022-07-27T07:33:09.784Z,100033.78
2022-07-27T07:36:14.989Z,100041.88
2022-07-27T07:38:46.247Z,100044.88
2022-07-27T07:41:17.521Z,100044.59
2022-07-27T07:43:50.192Z,100035.44
2022-07-27T07:46:20.829Z,100032.44
2022-07-27T07:48:54.370Z,100027.84
2022-07-27T07:51:25.035Z,100027.59
2022-07-27T07:53:55.831Z,100028.38
2022-07-27T07:56:26.143Z,100024.34
2022-07-27T07:59:15.911Z,100021.09
2022-07-27T08:01:46.899Z,100011.91
2022-07-27T08:04:17.018Z,100014.34
2022-07-27T08:06:47.311Z,100010.59
2022-07-27T08:09:19.079Z,100003.53
2022-07-27T08:11:49.230Z,100012.47
2022-07-27T08:14:19.843Z,100008.47
2022-07-27T08:16:50.479Z,100011.44
2022-07-27T08:19:21.149Z,100012.25
2022-07-27T08:21:51.983Z,100011.22
2022-07-27T08:24:22.394Z,100013.66
2022-07-27T08:26:52.872Z,100002.56
2022-07-27T08:29:23.661Z,100003.13
2022-07-27T08:32:07.511Z,100000.97
2022-07-27T08:34:39.927Z,99982.84
2022-07-27T08:37:15.358Z,99991.53
2022-07-27T08:40:38.414Z,99998.31
2022-07-27T08:42:38.733Z,100004.50
2022-07-27T08:45:12.589Z,99999.91
2022-07-27T08:47:52.230Z,100008.56
2022-07-27T08:50:27.329Z,100010.19
2022-07-27T08:52:59.950Z,100010.75
2022-07-27T08:55:30.627Z,100011.00
2022-07-27T08:58:03.400Z,100024.25
2022-07-27T09:00:40.475Z,100015.59
2022-07-27T09:03:19.057Z,100020.22
2022-07-27T09:05:53.497Z,100019.38
2022-07-27T09:08:31.221Z,100012.34
2022-07-27T09:11:22.029Z,100016.13
2022-07-27T09:13:53.814Z,100016.69
2022-07-27T09:17:14.927Z,100030.69
2022-07-27T09:19:23.598Z,100017.97
2022-07-27T09:21:54.395Z,100009.88
2022-07-27T09:24:46.283Z,100011.22
2022-07-27T09:28:02.822Z,100007.97
2022-07-27T09:31:14.679Z,100014.69
2022-07-27T09:34:06.860Z,100012.28
2022-07-27T09:37:16.733Z,100000.66
2022-07-27T09:44:12.314Z,99998.75
2022-07-27T09:46:26.577Z,99998.19
2022-07-27T09:49:00.081Z,100006.28
2022-07-27T09:55:14.623Z,100005.16
2022-07-27T09:58:16.200Z,99998.66
2022-07-27T10:01:19.052Z,100002.13
2022-07-27T10:05:00.055Z,100011.53
2022-07-27T10:07:22.484Z,100010.44
2022-07-27T10:09:56.869Z,100005.56
2022-07-27T10:12:29.200Z,100013.06
2022-07-27T10:15:00.111Z,100021.69
2022-07-27T10:17:35.098Z,100033.03
2022-07-27T10:20:29.018Z,100035.69
2022-07-27T10:23:02.718Z,100044.00
2022-07-27T10:25:38.045Z,100055.53
2022-07-27T10:28:14.856Z,100061.19
2022-07-27T10:30:54.307Z,100063.47
2022-07-27T10:33:54.265Z,100072.72
2022-07-27T10:36:33.797Z,100076.47
2022-07-27T10:39:19.771Z,100082.53
2022-07-27T10:42:51.875Z,100079.38
2022-07-27T10:46:01.612Z,100068.97
2022-07-27T10:49:07.426Z,100077.44
2022-07-27T10:52:40.202Z,100080.44
2022-07-27T10:55:41.567Z,100099.38
2022-07-27T10:58:42.229Z,100104.34
2022-07-27T11:01:34.712Z,100114.47
2022-07-27T11:04:39.058Z,100120.03
2022-07-27T11:08:05.142Z,100116.41
2022-07-27T11:11:19.579Z,100113.91
2022-07-27T11:14:30.329Z,100130.78
2022-07-27T11:17:40.054Z,100142.03
2022-07-27T11:20:09.720Z,100142.44
2022-07-27T11:23:40.699Z,100141.13
2022-07-27T11:25:38.079Z,100140.00
2022-07-27T11:28:11.650Z,100132.97
2022-07-27T11:30:46.430Z,100138.13
2022-07-27T11:33:25.985Z,100125.97
2022-07-27T11:36:03.295Z,100139.44
2022-07-27T11:39:15.069Z,100142.13
2022-07-27T11:42:08.440Z,100139.66
2022-07-27T11:44:49.528Z,100142.13
2022-07-27T11:47:43.554Z,100137.53
2022-07-27T11:50:18.888Z,100139.19
2022-07-27T11:53:05.016Z,100125.13
2022-07-27T11:55:42.858Z,100132.41
2022-07-27T11:58:17.415Z,100125.13
2022-07-27T12:00:54.095Z,100121.88
2022-07-27T12:03:32.057Z,100120.97
2022-07-27T12:06:18.186Z,100120.88
2022-07-27T12:08:49.145Z,100118.44
2022-07-27T12:11:34.297Z,100124.66
2022-07-27T12:14:27.756Z,100115.97
2022-07-27T12:18:03.151Z,100129.94
2022-07-27T12:21:04.485Z,100134.47
2022-07-27T12:24:09.471Z,100131.78
2022-07-27T12:30:22.140Z,100133.66
2022-07-27T12:33:00.625Z,100137.16
2022-07-27T12:35:38.782Z,100146.88
2022-07-27T12:38:11.800Z,100139.59
2022-07-27T12:40:59.868Z,100138.56
2022-07-27T12:43:32.339Z,100132.09
2022-07-27T12:46:13.879Z,100118.19
2022-07-27T12:48:46.842Z,100122.53
2022-07-27T12:51:28.009Z,100130.59
2022-07-27T12:53:58.915Z,100143.56
2022-07-27T12:56:29.570Z,100145.19
2022-07-27T12:59:06.950Z,100140.13
2022-07-27T13:01:38.291Z,100151.69
2022-07-27T13:04:10.301Z,100142.25
2022-07-27T13:06:41.259Z,100150.41
2022-07-27T13:09:12.778Z,100146.66
2022-07-27T13:11:47.651Z,100145.03
2022-07-27T13:14:19.290Z,100147.16
2022-07-27T13:16:50.510Z,100151.69
2022-07-27T13:19:22.444Z,100142.25
2022-07-27T13:21:53.811Z,100151.69
2022-07-27T13:24:24.741Z,100156.28
2022-07-27T13:26:57.714Z,100155.00
2022-07-27T13:29:32.219Z,100150.09
2022-07-27T13:32:03.056Z,100157.41
2022-07-27T13:34:33.908Z,100159.41
2022-07-27T13:37:59.664Z,100155.66
2022-07-27T13:56:53.399Z,100152.50
2022-07-27T14:03:59.023Z,100144.72
2022-07-27T14:06:30.305Z,100144.59
2022-07-27T14:09:02.099Z,100145.66
2022-07-27T14:11:53.008Z,100157.16
2022-07-27T14:14:27.251Z,100165.13
2022-07-27T14:16:58.118Z,100158.66
2022-07-27T14:19:29.838Z,100157.28
2022-07-27T14:22:24.007Z,100163.22
2022-07-27T14:24:55.088Z,100159.97
2022-07-27T14:27:26.442Z,100158.31
2022-07-27T14:30:09.127Z,100162.09
2022-07-27T14:33:35.172Z,100161.75
2022-07-27T14:36:31.679Z,100145.28
2022-07-27T14:39:27.020Z,100149.47
2022-07-27T14:41:59.247Z,100146.44
2022-07-27T14:44:34.797Z,100141.31
2022-07-27T14:47:05.819Z,100150.78
2022-07-27T14:49:54.058Z,100151.59
2022-07-27T15:09:37.916Z,100136.63
2022-07-27T15:15:44.618Z,100125.78
2022-07-27T15:18:51.605Z,100124.94
2022-07-27T15:21:36.224Z,100124.13
2022-07-27T15:24:46.321Z,100123.56
2022-07-27T15:27:37.404Z,100123.56
2022-07-27T15:30:17.461Z,100121.59
2022-07-27T15:32:55.645Z,100135.13
2022-07-27T15:35:27.894Z,100128.94
2022-07-27T15:37:59.093Z,100121.69
2022-07-27T15:40:59.856Z,100126.59
2022-07-27T15:44:28.195Z,100120.41
2022-07-27T15:52:49.298Z,100116.66
2022-07-27T15:55:26.895Z,100116.66
2022-07-27T15:58:08.027Z,100119.09
2022-07-27T16:00:47.675Z,100122.59
2022-07-27T16:14:56.661Z,100116.06
2022-07-27T16:23:17.934Z,100117.63
2022-07-27T16:33:28.564Z,100115.06
2022-07-27T16:49:02.234Z,100115.88
2022-07-27T16:52:58.468Z,100108.91
2022-07-27T16:59:48.537Z,100114.03
2022-07-27T17:03:27.132Z,100119.41
2022-07-27T17:06:23.562Z,100118.34
2022-07-27T17:08:54.247Z,100111.94
2022-07-27T17:11:25.196Z,100116.00
2022-07-27T17:13:58.929Z,100110.97
2022-07-27T17:16:30.715Z,100116.94
2022-07-27T17:19:01.307Z,100110.50
2022-07-27T17:21:31.970Z,100107.22
2022-07-27T17:24:02.609Z,100103.25
2022-07-27T17:26:33.817Z,100097.63
2022-07-27T17:29:04.371Z,100101.97
2022-07-27T17:31:35.143Z,100100.09
2022-07-27T17:34:05.990Z,100087.94
2022-07-27T17:36:36.629Z,100089.00
2022-07-27T17:39:08.059Z,100078.72
2022-07-27T17:41:38.799Z,100068.47
2022-07-27T17:44:08.952Z,100070.53
2022-07-27T17:46:40.120Z,100071.03
2022-07-27T17:49:11.182Z,100074.78
2022-07-27T17:51:42.351Z,100074.78
2022-07-27T17:54:13.001Z,100065.69
2022-07-27T17:56:43.399Z,100058.66
2022-07-27T17:59:35.826Z,100048.97
2022-07-27T18:02:06.309Z,100052.81
2022-07-27T18:04:39.419Z,100047.44
2022-07-27T18:07:09.841Z,100045.31
2022-07-27T18:09:40.980Z,100049.88
2022-07-27T18:12:11.494Z,100055.50
2022-07-27T18:15:01.367Z,100077.00
2022-07-27T18:17:32.306Z,100089.03
2022-07-27T18:20:03.078Z,100093.59
2022-07-27T18:22:38.330Z,100094.06
2022-07-27T18:25:10.699Z,100085.88
2022-07-27T18:27:42.165Z,100085.31
2022-07-27T18:30:13.667Z,100089.06
2022-07-27T18:32:46.479Z,100091.16
2022-07-27T18:35:16.671Z,100086.25
2022-07-27T18:37:46.912Z,100097.13
2022-07-27T18:40:17.298Z,100097.13
2022-07-27T18:42:47.790Z,100097.13
2022-07-27T18:45:18.067Z,100094.88
2022-07-27T18:47:49.298Z,100098.88
2022-07-27T18:50:20.068Z,100092.88
2022-07-27T18:52:50.299Z,100098.75
2022-07-27T18:55:22.787Z,100103.28
2022-07-27T18:58:00.151Z,100099.78
2022-07-27T19:00:30.941Z,100108.91
2022-07-27T19:03:01.509Z,100102.38
2022-07-27T19:05:41.370Z,100109.16
2022-07-27T19:08:13.806Z,100109.72
2022-07-27T19:10:45.512Z,100116.72
2022-07-27T19:13:15.639Z,100111.00
2022-07-27T19:15:46.623Z,100117.22
2022-07-27T19:18:16.783Z,100116.59
2022-07-27T19:20:47.017Z,100114.75
2022-07-27T19:23:17.180Z,100114.53
2022-07-27T19:25:47.348Z,100097.56
2022-07-27T19:28:20.489Z,100101.09
2022-07-27T19:30:50.630Z,100088.47
2022-07-27T19:33:22.424Z,100099.00
2022-07-27T19:35:53.806Z,100098.41
2022-07-27T19:38:23.374Z,100099.00
2022-07-27T19:40:56.174Z,100107.06
2022-07-27T19:43:26.642Z,100106.56
2022-07-27T19:45:57.007Z,100110.06
2022-07-27T19:48:29.181Z,100095.81
2022-07-27T19:51:06.390Z,100090.44
2022-07-27T19:53:37.360Z,100095.81
2022-07-27T19:56:07.666Z,100095.34
2022-07-27T19:58:36.968Z,100099.09
2022-07-27T20:01:09.548Z,100107.63
2022-07-27T20:03:53.331Z,100096.31
2022-07-27T20:06:28.198Z,100090.34
2022-07-27T20:09:00.853Z,100079.63
2022-07-27T20:11:32.339Z,100075.84
2022-07-27T20:14:03.859Z,100088.00
2022-07-27T20:16:35.455Z,100104.13
2022-07-27T20:19:05.687Z,100109.72
2022-07-27T20:21:38.114Z,100108.91
2022-07-27T20:24:08.544Z,100108.09
2022-07-27T20:26:38.584Z,100109.72
2022-07-27T20:29:09.112Z,100107.84
2022-07-27T20:31:41.368Z,100101.44
2022-07-27T20:34:11.489Z,100094.66
2022-07-27T20:36:41.431Z,100099.00
2022-07-27T20:39:16.898Z,100093.63
2022-07-27T20:41:48.057Z,100095.47
2022-07-27T20:44:18.257Z,100099.91
2022-07-27T20:46:48.400Z,100105.53
2022-07-27T20:49:18.786Z,100106.81
2022-07-27T20:51:49.019Z,100108.94
2022-07-27T20:54:19.169Z,100115.09
2022-07-27T20:57:00.016Z,100107.84
2022-07-27T20:59:30.353Z,100103.06
2022-07-27T21:02:00.711Z,100096.88
2022-07-27T21:04:30.838Z,100091.88
2022-07-27T21:07:00.850Z,100075.75
2022-07-27T21:09:32.909Z,100073.91
2022-07-27T21:12:03.321Z,100068.25
2022-07-27T21:14:33.818Z,100068.25
2022-07-27T21:17:04.024Z,100067.47
2022-07-27T21:19:34.479Z,100065.34
2022-07-27T21:22:04.955Z,100075.28
2022-07-27T21:24:36.768Z,100070.72
2022-07-27T21:27:07.603Z,100071.56
2022-07-27T21:29:39.896Z,100060.81
2022-07-27T21:32:10.964Z,100061.84
2022-07-27T21:34:41.353Z,100059.16
2022-07-27T21:37:12.062Z,100053.00
2022-07-27T21:39:41.733Z,100044.69
2022-07-27T21:42:11.949Z,100041.41
2022-07-27T21:44:43.018Z,100038.16
2022-07-27T21:47:14.641Z,100031.63
2022-07-27T21:49:46.691Z,100041.56
2022-07-27T21:52:17.107Z,100040.03
2022-07-27T21:54:47.359Z,100048.94
2022-07-27T21:57:17.513Z,100041.13
2022-07-27T21:59:48.731Z,100040.88
2022-07-27T22:02:18.894Z,100039.56
2022-07-27T22:04:49.152Z,100042.84
2022-07-27T22:07:19.716Z,100038.03
2022-07-27T22:09:50.222Z,100048.53
2022-07-27T22:12:20.361Z,100039.69
2022-07-27T22:14:50.338Z,100042.38
2022-07-27T22:17:19.955Z,100054.72
2022-07-27T22:19:50.170Z,100050.44
2022-07-27T22:22:20.370Z,100055.78
2022-07-27T22:24:50.884Z,100046.09
2022-07-27T22:27:21.146Z,100049.84
2022-07-27T22:29:52.364Z,100045.28
2022-07-27T22:32:23.204Z,100053.09
2022-07-27T22:34:53.585Z,100054.72
2022-07-27T22:37:23.716Z,100054.72
2022-07-27T22:39:53.923Z,100062.56
2022-07-27T22:42:24.402Z,100063.38
2022-07-27T22:44:54.699Z,100061.50
2022-07-27T22:47:24.778Z,100054.03
2022-07-27T22:49:54.898Z,100048.44
2022-07-27T22:52:25.324Z,100049.00
2022-07-27T22:54:56.187Z,100038.25
2022-07-27T22:57:27.039Z,100029.72
2022-07-27T22:59:57.819Z,100030.78
2022-07-27T23:02:29.437Z,100038.34
2022-07-27T23:05:00.864Z,100030.88
2022-07-27T23:07:31.696Z,100029.25
2022-07-27T23:10:01.922Z,100039.88
2022-07-27T23:12:32.531Z,100044.41
2022-07-27T23:15:03.196Z,100047.47
2022-07-27T23:17:34.181Z,100053.19
2022-07-27T23:20:05.026Z,100045.97
2022-07-27T23:22:35.314Z,100048.97
2022-07-27T23:25:07.219Z,100040.09
2022-07-27T23:27:37.721Z,100039.84
2022-07-27T23:30:09.105Z,100037.16
2022-07-27T23:32:40.740Z,100029.34
2022-07-27T23:35:11.918Z,100044.66
2022-07-27T23:37:42.422Z,100057.03
2022-07-27T23:40:13.242Z,100065.09
2022-07-27T23:42:43.520Z,100067.78
2022-07-27T23:45:14.196Z,100065.56
2022-07-27T23:47:44.764Z,100055.06
2022-07-27T23:50:15.146Z,100043.50
2022-07-27T23:52:45.170Z,100041.38
2022-07-27T23:55:15.474Z,100041.97
2022-07-27T23:57:45.685Z,100035.53
